createdAt,value
2018-03-23T00:00:51.415Z,92.78
2018-03-23T00:02:18.612Z,92.84
2018-03-23T00:03:45.793Z,92.69
2018-03-23T00:05:17.092Z,92.93
2018-03-23T00:06:40.363Z,93.12
2018-03-23T00:08:07.570Z,93.20
2018-03-23T00:09:38.660Z,93.19
2018-03-23T00:11:05.723Z,92.95
2018-03-23T00:12:29.077Z,92.53
2018-03-23T00:13:56.333Z,92.45
2018-03-23T00:15:23.447Z,92.17
2018-03-23T00:16:54.697Z,91.99
2018-03-23T00:18:21.937Z,92.08
2018-03-23T00:19:45.264Z,92.54
2018-03-23T00:21:12.438Z,92.82
2018-03-23T00:22:43.672Z,92.18
2018-03-23T00:24:06.476Z,92.23
2018-03-23T00:25:33.639Z,92.39
2018-03-23T00:27:04.852Z,92.69
2018-03-23T00:28:28.024Z,93.09
2018-03-23T00:29:55.293Z,93.61
2018-03-23T00:31:22.463Z,93.56
2018-03-23T00:32:53.522Z,93.59
2018-03-23T00:34:16.883Z,93.34
2018-03-23T00:35:48.055Z,93.22
2018-03-23T00:37:11.307Z,93.16
2018-03-23T00:38:42.485Z,92.58
2018-03-23T00:40:09.280Z,92.77
2018-03-23T00:41:32.592Z,92.99
2018-03-23T00:42:59.902Z,93.05
2018-03-23T00:44:27.009Z,92.89
2018-03-23T00:45:54.195Z,92.50
2018-03-23T00:47:25.455Z,92.45
2018-03-23T00:48:48.774Z,91.86
2018-03-23T00:50:19.959Z,92.14
2018-03-23T00:51:47.089Z,92.23
2018-03-23T00:53:10.119Z,92.29
2018-03-23T00:54:37.345Z,92.17
2018-03-23T00:56:08.571Z,92.49
2018-03-23T00:57:31.724Z,92.70
2018-03-23T00:58:59.136Z,92.63
2018-03-23T01:00:26.121Z,92.71
2018-03-23T01:01:57.481Z,92.69
2018-03-23T01:03:20.676Z,93.15
2018-03-23T01:04:47.925Z,93.09
2018-03-23T01:06:19.105Z,93.05
2018-03-23T01:07:46.300Z,93.32
2018-03-23T01:09:13.557Z,93.10
2018-03-23T01:10:40.618Z,92.90
2018-03-23T01:12:03.861Z,92.88
2018-03-23T01:13:30.955Z,92.55
2018-03-23T01:15:02.285Z,92.63
2018-03-23T01:16:25.484Z,92.89
2018-03-23T01:17:56.740Z,92.83
2018-03-23T01:19:23.827Z,92.72
2018-03-23T01:20:47.109Z,92.44
2018-03-23T01:22:14.380Z,91.78
2018-03-23T01:23:41.461Z,92.22
2018-03-23T01:25:12.747Z,92.53
2018-03-23T01:26:35.853Z,93.05
2018-03-23T01:28:03.167Z,93.34
2018-03-23T01:29:34.330Z,93.42
2018-03-23T01:31:01.558Z,93.43
2018-03-23T01:32:28.712Z,93.39
2018-03-23T01:33:51.998Z,93.38
2018-03-23T01:35:23.098Z,93.42
2018-03-23T01:36:50.256Z,93.33
2018-03-23T01:38:17.486Z,93.25
2018-03-23T01:39:44.742Z,92.89
2018-03-23T01:41:11.954Z,92.65
2018-03-23T01:42:35.470Z,92.76
2018-03-23T01:44:02.577Z,92.78
2018-03-23T01:45:33.796Z,92.69
2018-03-23T01:47:01.038Z,92.55
2018-03-23T01:48:24.267Z,92.55
2018-03-23T01:49:55.461Z,92.44
2018-03-23T01:51:22.528Z,91.89
2018-03-23T01:52:49.632Z,92.18
2018-03-23T01:54:12.993Z,92.41
2018-03-23T01:55:40.255Z,92.31
2018-03-23T01:57:11.315Z,92.14
2018-03-23T01:58:34.621Z,91.99
2018-03-23T02:00:05.665Z,92.09
2018-03-23T02:01:28.883Z,92.17
2018-03-23T02:02:56.116Z,92.06
2018-03-23T02:04:23.310Z,91.96
2018-03-23T02:05:54.512Z,91.98
2018-03-23T02:07:17.692Z,91.97
2018-03-23T02:08:45.010Z,92.13
2018-03-23T02:10:16.326Z,92.08
2018-03-23T02:11:39.568Z,91.94
2018-03-23T02:13:10.742Z,91.85
2018-03-23T02:14:33.851Z,91.84
2018-03-23T02:16:01.058Z,91.82
2018-03-23T02:17:28.417Z,91.87
2018-03-23T02:18:59.565Z,91.91
2018-03-23T02:20:26.726Z,91.88
2018-03-23T02:21:49.884Z,91.92
2018-03-23T02:23:21.082Z,91.88
2018-03-23T02:24:44.303Z,91.76
2018-03-23T02:26:11.477Z,91.74
2018-03-23T02:27:38.675Z,91.37
2018-03-23T02:29:05.760Z,91.59
2018-03-23T02:30:33.001Z,91.84
2018-03-23T02:32:04.248Z,91.87
2018-03-23T02:33:31.582Z,91.77
2018-03-23T02:34:58.903Z,91.81
2018-03-23T02:36:26.181Z,91.74
2018-03-23T02:37:49.432Z,91.70
2018-03-23T02:39:20.585Z,91.64
2018-03-23T02:40:47.717Z,91.67
2018-03-23T02:42:14.933Z,91.94
2018-03-23T02:43:38.276Z,91.85
2018-03-23T02:45:09.056Z,91.83
2018-03-23T02:46:32.316Z,91.89
2018-03-23T02:47:59.522Z,91.78
2018-03-23T02:49:26.663Z,91.97
2018-03-23T02:50:57.913Z,91.87
2018-03-23T02:52:21.185Z,92.03
2018-03-23T02:53:52.424Z,92.05
2018-03-23T02:55:19.409Z,92.02
2018-03-23T02:56:46.467Z,91.86
2018-03-23T02:58:09.642Z,91.79
2018-03-23T02:59:36.700Z,91.86
2018-03-23T03:01:03.734Z,91.77
2018-03-23T03:02:30.881Z,91.75
2018-03-23T03:03:58.094Z,91.87
2018-03-23T03:05:25.299Z,91.99
2018-03-23T03:06:52.667Z,91.80
2018-03-23T03:08:23.981Z,92.02
2018-03-23T03:09:47.308Z,91.95
2018-03-23T03:11:14.467Z,91.93
2018-03-23T03:12:45.734Z,91.73
2018-03-23T03:14:08.809Z,91.79
2018-03-23T03:15:35.905Z,91.73
2018-03-23T03:17:06.843Z,91.46
2018-03-23T03:18:33.952Z,91.09
2018-03-23T03:20:01.240Z,91.48
2018-03-23T03:21:28.237Z,92.08
2018-03-23T03:22:51.593Z,92.48
2018-03-23T03:24:18.735Z,92.93
2018-03-23T03:25:45.950Z,93.02
2018-03-23T03:27:13.186Z,92.94
2018-03-23T03:28:44.256Z,92.34
2018-03-23T03:30:11.421Z,92.70
2018-03-23T03:31:38.625Z,93.00
2018-03-23T03:33:05.869Z,93.27
2018-03-23T03:34:32.974Z,93.39
2018-03-23T03:35:56.160Z,93.62
2018-03-23T03:37:23.312Z,93.30
2018-03-23T03:38:50.717Z,93.15
2018-03-23T03:40:17.979Z,93.47
2018-03-23T03:41:45.347Z,93.59
2018-03-23T03:43:12.304Z,93.55
2018-03-23T03:44:43.489Z,93.37
2018-03-23T03:46:10.612Z,93.41
2018-03-23T03:47:33.847Z,93.18
2018-03-23T03:49:01.107Z,92.92
2018-03-23T03:50:32.195Z,92.25
2018-03-23T03:51:59.519Z,92.05
2018-03-23T03:53:26.757Z,92.71
2018-03-23T03:54:54.059Z,93.19
2018-03-23T03:56:17.106Z,93.47
2018-03-23T03:57:48.127Z,93.38
2018-03-23T03:59:11.458Z,93.41
2018-03-23T04:00:38.664Z,93.15
2018-03-23T04:02:05.714Z,92.41
2018-03-23T04:03:36.959Z,92.90
2018-03-23T04:05:00.232Z,93.47
2018-03-23T04:06:27.329Z,93.48
2018-03-23T04:07:54.684Z,93.53
2018-03-23T04:09:25.789Z,93.54
2018-03-23T04:10:49.134Z,93.38
2018-03-23T04:12:16.426Z,93.47
2018-03-23T04:13:43.567Z,93.66
2018-03-23T04:15:14.641Z,93.70
2018-03-23T04:16:37.805Z,93.77
2018-03-23T04:18:08.951Z,93.80
2018-03-23T04:19:32.133Z,93.68
2018-03-23T04:21:03.234Z,93.72
2018-03-23T04:22:26.228Z,93.57
2018-03-23T04:23:53.552Z,93.76
2018-03-23T04:25:21.008Z,94.00
2018-03-23T04:26:48.049Z,93.82
2018-03-23T04:28:15.295Z,93.69
2018-03-23T04:29:46.474Z,93.65
2018-03-23T04:31:13.683Z,93.47
2018-03-23T04:32:36.825Z,93.29
2018-03-23T04:34:04.107Z,93.24
2018-03-23T04:35:35.327Z,93.08
2018-03-23T04:36:58.428Z,93.31
2018-03-23T04:38:25.691Z,93.39
2018-03-23T04:39:52.893Z,93.54
2018-03-23T04:41:23.942Z,93.58
2018-03-23T04:42:51.199Z,93.15
2018-03-23T04:44:14.308Z,93.37
2018-03-23T04:45:41.408Z,93.44
2018-03-23T04:47:08.476Z,93.65
2018-03-23T04:48:39.639Z,93.62
2018-03-23T04:50:06.466Z,93.42
2018-03-23T04:51:33.591Z,93.62
2018-03-23T04:52:56.907Z,93.87
2018-03-23T04:54:24.180Z,94.13
2018-03-23T04:55:51.301Z,94.26
2018-03-23T04:57:22.610Z,94.24
2018-03-23T04:58:45.946Z,93.84
2018-03-23T05:00:13.135Z,93.76
2018-03-23T05:01:40.291Z,93.49
2018-03-23T05:03:07.493Z,93.16
2018-03-23T05:04:38.571Z,92.98
2018-03-23T05:06:05.551Z,92.89
2018-03-23T05:07:32.529Z,93.33
2018-03-23T05:08:55.702Z,93.33
2018-03-23T05:10:26.972Z,93.11
2018-03-23T05:11:50.270Z,92.86
2018-03-23T05:13:17.605Z,92.68
2018-03-23T05:14:48.840Z,92.59
2018-03-23T05:16:16.008Z,92.42
2018-03-23T05:17:43.118Z,92.34
2018-03-23T05:19:06.244Z,92.44
2018-03-23T05:20:33.436Z,92.24
2018-03-23T05:22:00.766Z,92.22
2018-03-23T05:23:28.004Z,92.27
2018-03-23T05:24:55.117Z,92.48
2018-03-23T05:26:22.379Z,92.58
2018-03-23T05:27:49.602Z,92.63
2018-03-23T05:29:16.923Z,92.61
2018-03-23T05:30:44.060Z,92.64
2018-03-23T05:32:15.191Z,92.46
2018-03-23T05:33:42.510Z,92.32
2018-03-23T05:35:05.550Z,92.26
2018-03-23T05:36:32.770Z,92.30
2018-03-23T05:37:59.914Z,92.33
2018-03-23T05:39:31.122Z,92.28
2018-03-23T05:40:54.376Z,92.04
2018-03-23T05:42:21.576Z,92.22
2018-03-23T05:43:48.604Z,92.23
2018-03-23T05:45:15.736Z,92.30
2018-03-23T05:46:46.953Z,92.24
2018-03-23T05:48:14.098Z,92.21
2018-03-23T05:49:40.902Z,92.34
2018-03-23T05:51:04.013Z,92.47
2018-03-23T05:52:35.102Z,92.50
2018-03-23T05:53:58.396Z,92.55
2018-03-23T05:55:25.753Z,92.38
2018-03-23T05:56:52.996Z,92.02
2018-03-23T05:58:20.179Z,91.88
2018-03-23T05:59:47.352Z,92.09
2018-03-23T06:01:14.438Z,92.11
2018-03-23T06:02:41.555Z,92.09
2018-03-23T06:04:12.689Z,92.23
2018-03-23T06:05:35.768Z,92.10
2018-03-23T06:07:06.908Z,92.10
2018-03-23T06:08:30.263Z,91.93
2018-03-23T06:10:01.537Z,91.99
2018-03-23T06:11:28.677Z,91.94
2018-03-23T06:12:55.982Z,91.97
2018-03-23T06:14:23.174Z,92.10
2018-03-23T06:15:46.441Z,91.86
2018-03-23T06:17:17.416Z,91.74
2018-03-23T06:18:40.667Z,92.06
2018-03-23T06:20:11.890Z,92.36
2018-03-23T06:21:39.174Z,92.47
2018-03-23T06:23:06.396Z,92.50
2018-03-23T06:24:29.650Z,92.47
2018-03-23T06:26:00.962Z,92.30
2018-03-23T06:27:24.152Z,92.14
2018-03-23T06:28:51.285Z,92.08
2018-03-23T06:30:22.580Z,92.34
2018-03-23T06:31:45.788Z,92.39
2018-03-23T06:33:17.039Z,92.36
2018-03-23T06:34:44.241Z,92.25
2018-03-23T06:36:11.444Z,91.87
2018-03-23T06:37:38.720Z,91.69
2018-03-23T06:39:05.936Z,92.02
2018-03-23T06:40:29.203Z,92.17
2018-03-23T06:42:00.212Z,92.37
2018-03-23T06:43:27.456Z,92.46
2018-03-23T06:44:50.775Z,92.25
2018-03-23T06:46:18.086Z,92.07
2018-03-23T06:47:49.327Z,91.99
2018-03-23T06:49:12.450Z,91.77
2018-03-23T06:50:43.480Z,91.90
2018-03-23T06:52:06.658Z,92.00
2018-03-23T06:53:33.894Z,92.46
2018-03-23T06:55:05.145Z,92.66
2018-03-23T06:56:32.396Z,92.79
2018-03-23T06:57:55.670Z,93.11
2018-03-23T06:59:26.846Z,93.18
2018-03-23T07:00:54.070Z,92.83
2018-03-23T07:02:17.261Z,92.55
2018-03-23T07:03:48.372Z,92.27
2018-03-23T07:05:11.580Z,92.41
2018-03-23T07:06:38.818Z,92.75
2018-03-23T07:08:05.994Z,92.97
2018-03-23T07:09:33.222Z,93.55
2018-03-23T07:11:04.455Z,93.72
2018-03-23T07:12:27.599Z,93.96
2018-03-23T07:13:54.928Z,93.97
2018-03-23T07:15:22.230Z,94.32
2018-03-23T07:16:53.111Z,94.24
2018-03-23T07:18:20.260Z,94.19
2018-03-23T07:19:43.341Z,93.86
2018-03-23T07:21:14.593Z,94.05
2018-03-23T07:22:37.869Z,93.97
2018-03-23T07:24:05.102Z,94.18
2018-03-23T07:25:35.993Z,94.60
2018-03-23T07:27:03.288Z,94.80
2018-03-23T07:28:30.452Z,94.74
2018-03-23T07:29:53.840Z,94.82
2018-03-23T07:31:21.033Z,94.86
2018-03-23T07:32:48.328Z,94.81
2018-03-23T07:34:15.481Z,94.80
2018-03-23T07:35:46.568Z,94.38
2018-03-23T07:37:09.734Z,94.54
2018-03-23T07:38:36.850Z,94.53
2018-03-23T07:40:08.150Z,94.50
2018-03-23T07:41:31.380Z,94.53
2018-03-23T07:42:58.471Z,94.45
2018-03-23T07:44:25.714Z,94.39
2018-03-23T07:45:52.972Z,94.48
2018-03-23T07:47:24.222Z,94.52
2018-03-23T07:48:47.413Z,94.11
2018-03-23T07:50:14.575Z,94.39
2018-03-23T07:51:41.766Z,94.47
2018-03-23T07:53:12.854Z,94.50
2018-03-23T07:54:36.119Z,94.04
2018-03-23T07:56:07.363Z,94.36
2018-03-23T07:57:30.546Z,94.43
2018-03-23T07:58:57.649Z,94.36
2018-03-23T08:00:24.902Z,94.77
2018-03-23T08:01:52.018Z,94.97
2018-03-23T08:03:19.317Z,94.84
2018-03-23T08:04:46.355Z,95.05
2018-03-23T08:06:17.608Z,94.97
2018-03-23T08:07:40.897Z,94.73
2018-03-23T08:09:11.938Z,95.22
2018-03-23T08:10:35.041Z,95.17
2018-03-23T08:12:02.148Z,94.26
2018-03-23T08:13:29.310Z,93.33
2018-03-23T08:15:00.684Z,93.60
2018-03-23T08:16:23.976Z,93.59
2018-03-23T08:17:51.353Z,93.43
2018-03-23T08:19:18.564Z,93.00
2018-03-23T08:20:45.724Z,92.26
2018-03-23T08:22:12.865Z,92.43
2018-03-23T08:23:44.025Z,92.52
2018-03-23T08:25:06.875Z,92.64
2018-03-23T08:26:38.036Z,92.96
2018-03-23T08:28:01.349Z,92.61
2018-03-23T08:29:28.542Z,91.73
2018-03-23T08:30:59.701Z,91.58
2018-03-23T08:32:26.806Z,91.61
2018-03-23T08:33:49.986Z,91.55
2018-03-23T08:35:17.297Z,91.07
2018-03-23T08:36:44.345Z,89.12
2018-03-23T08:38:15.628Z,88.75
2018-03-23T08:39:42.929Z,88.94
2018-03-23T08:41:10.089Z,89.34
2018-03-23T08:42:33.284Z,89.25
2018-03-23T08:44:00.555Z,89.39
2018-03-23T08:45:31.756Z,87.67
2018-03-23T08:46:58.906Z,86.67
2018-03-23T08:48:26.148Z,87.50
2018-03-23T08:49:49.293Z,86.60
2018-03-23T08:51:16.228Z,86.90
2018-03-23T08:52:43.328Z,87.39
2018-03-23T08:54:10.584Z,86.83
2018-03-23T08:55:37.655Z,87.24
2018-03-23T08:57:04.771Z,87.24
2018-03-23T08:58:32.051Z,88.39
2018-03-23T08:59:59.239Z,86.94
2018-03-23T09:01:30.398Z,87.47
2018-03-23T09:02:53.731Z,87.17
2018-03-23T09:04:21.022Z,87.28
2018-03-23T09:05:48.259Z,87.04
2018-03-23T09:07:15.420Z,86.92
2018-03-23T09:08:42.690Z,87.48
2018-03-23T09:10:09.741Z,87.45
2018-03-23T09:11:40.791Z,87.04
2018-03-23T09:13:03.793Z,87.07
2018-03-23T09:14:35.080Z,87.40
2018-03-23T09:15:58.444Z,87.78
2018-03-23T09:17:25.705Z,87.84
2018-03-23T09:18:52.866Z,87.66
2018-03-23T09:20:20.093Z,87.37
2018-03-23T09:21:51.387Z,87.08
2018-03-23T09:23:14.551Z,87.28
2018-03-23T09:24:41.780Z,87.83
2018-03-23T09:26:08.943Z,87.86
2018-03-23T09:27:36.060Z,87.89
2018-03-23T09:29:08.257Z,87.77
2018-03-23T09:30:30.476Z,87.49
2018-03-23T09:31:57.725Z,87.19
2018-03-23T09:33:24.949Z,87.76
2018-03-23T09:34:56.082Z,87.69
2018-03-23T09:36:19.236Z,88.24
2018-03-23T09:37:50.440Z,87.64
2018-03-23T09:39:17.621Z,87.73
2018-03-23T09:40:44.818Z,87.90
2018-03-23T09:42:11.925Z,88.52
2018-03-23T09:43:35.249Z,88.37
2018-03-23T09:45:06.465Z,87.06
2018-03-23T09:46:33.572Z,87.29
2018-03-23T09:48:00.879Z,86.24
2018-03-23T09:49:23.978Z,85.85
2018-03-23T09:50:51.325Z,86.57
2018-03-23T09:52:18.512Z,86.85
2018-03-23T09:53:45.819Z,86.39
2018-03-23T09:55:17.043Z,86.08
2018-03-23T09:56:44.259Z,86.07
2018-03-23T09:58:07.427Z,87.16
2018-03-23T09:59:34.553Z,87.09
2018-03-23T10:01:05.934Z,87.38
2018-03-23T10:02:29.056Z,87.92
2018-03-23T10:04:00.435Z,87.93
2018-03-23T10:05:27.468Z,88.09
2018-03-23T10:06:50.736Z,87.84
2018-03-23T10:08:18.023Z,87.59
2018-03-23T10:09:45.468Z,88.42
2018-03-23T10:11:12.559Z,88.17
2018-03-23T10:12:39.848Z,88.72
2018-03-23T10:14:07.000Z,88.32
2018-03-23T10:15:38.262Z,87.41
2018-03-23T10:17:05.465Z,87.57
2018-03-23T10:18:28.771Z,86.97
2018-03-23T10:19:55.997Z,87.16
2018-03-23T10:21:23.321Z,86.76
2018-03-23T10:22:50.570Z,87.08
2018-03-23T10:24:17.787Z,87.48
2018-03-23T10:25:48.972Z,86.86
2018-03-23T10:27:12.145Z,87.05
2018-03-23T10:28:43.405Z,86.55
2018-03-23T10:30:06.590Z,86.65
2018-03-23T10:31:33.822Z,86.53
2018-03-23T10:33:05.124Z,86.58
2018-03-23T10:34:28.420Z,86.06
2018-03-23T10:35:59.820Z,85.66
2018-03-23T10:37:27.018Z,86.58
2018-03-23T10:38:54.096Z,86.84
2018-03-23T10:40:17.314Z,86.74
2018-03-23T10:41:48.534Z,86.97
2018-03-23T10:43:11.639Z,87.23
2018-03-23T10:44:42.775Z,87.66
2018-03-23T10:46:05.606Z,86.57
2018-03-23T10:47:32.718Z,86.44
2018-03-23T10:49:00.001Z,87.05
2018-03-23T10:50:27.320Z,87.31
2018-03-23T10:51:58.462Z,87.74
2018-03-23T10:53:21.616Z,87.55
2018-03-23T10:54:52.670Z,88.16
2018-03-23T10:56:15.983Z,88.23
2018-03-23T10:57:43.052Z,87.28
2018-03-23T10:59:10.257Z,86.26
2018-03-23T11:00:37.457Z,85.79
2018-03-23T11:02:04.582Z,85.09
2018-03-23T11:03:31.712Z,85.16
2018-03-23T11:05:02.983Z,85.00
2018-03-23T11:06:26.269Z,85.72
2018-03-23T11:07:57.341Z,86.01
2018-03-23T11:09:20.519Z,85.83
2018-03-23T11:10:47.882Z,86.33
2018-03-23T11:12:14.940Z,86.23
2018-03-23T11:13:42.185Z,85.63
2018-03-23T11:15:13.265Z,86.33
2018-03-23T11:16:36.486Z,86.15
2018-03-23T11:18:03.574Z,86.97
2018-03-23T11:19:30.882Z,87.13
2018-03-23T11:20:58.253Z,86.70
2018-03-23T11:22:25.483Z,86.36
2018-03-23T11:23:52.728Z,86.30
2018-03-23T11:25:23.899Z,85.75
2018-03-23T11:26:47.282Z,85.50
2018-03-23T11:28:14.644Z,84.73
2018-03-23T11:29:41.906Z,83.47
2018-03-23T11:31:09.065Z,84.13
2018-03-23T11:32:36.196Z,84.12
2018-03-23T11:34:03.430Z,83.80
2018-03-23T11:35:30.782Z,83.31
2018-03-23T11:36:57.828Z,84.63
2018-03-23T11:38:29.143Z,84.31
2018-03-23T11:39:56.455Z,85.04
2018-03-23T11:41:19.838Z,86.05
2018-03-23T11:42:51.047Z,85.59
2018-03-23T11:44:14.300Z,85.92
2018-03-23T11:45:45.673Z,85.27
2018-03-23T11:47:08.751Z,85.04
2018-03-23T11:48:35.760Z,85.09
2018-03-23T11:50:02.784Z,85.28
2018-03-23T11:51:29.997Z,84.10
2018-03-23T11:52:57.234Z,84.50
2018-03-23T11:54:24.410Z,84.84
2018-03-23T11:55:51.516Z,84.97
2018-03-23T11:57:18.762Z,85.89
2018-03-23T11:58:46.024Z,85.85
2018-03-23T12:00:13.261Z,86.32
2018-03-23T12:01:44.601Z,85.53
2018-03-23T12:03:07.538Z,84.82
2018-03-23T12:04:34.805Z,84.73
2018-03-23T12:06:02.088Z,85.94
2018-03-23T12:07:33.449Z,85.55
2018-03-23T12:09:00.690Z,86.05
2018-03-23T12:10:27.976Z,85.92
2018-03-23T12:11:51.334Z,85.12
2018-03-23T12:13:22.537Z,85.77
2018-03-23T12:14:45.858Z,85.63
2018-03-23T12:16:17.069Z,85.78
2018-03-23T12:17:44.283Z,86.17
2018-03-23T12:19:07.453Z,85.72
2018-03-23T12:20:34.798Z,85.29
2018-03-23T12:22:06.091Z,84.88
2018-03-23T12:23:29.259Z,85.57
2018-03-23T12:24:56.397Z,85.81
2018-03-23T12:26:27.594Z,86.21
2018-03-23T12:27:50.835Z,86.26
2018-03-23T12:29:22.088Z,86.50
2018-03-23T12:30:45.272Z,85.33
2018-03-23T12:32:12.597Z,85.21
2018-03-23T12:33:43.756Z,85.32
2018-03-23T12:35:06.850Z,85.63
2018-03-23T12:36:37.903Z,85.40
2018-03-23T12:38:05.156Z,85.70
2018-03-23T12:39:32.412Z,86.29
2018-03-23T12:40:55.662Z,87.07
2018-03-23T12:42:22.982Z,87.09
2018-03-23T12:43:50.168Z,86.09
2018-03-23T12:45:21.209Z,86.35
2018-03-23T12:46:44.462Z,86.56
2018-03-23T12:48:15.616Z,86.87
2018-03-23T12:49:38.847Z,85.89
2018-03-23T12:51:10.083Z,85.69
2018-03-23T12:52:33.345Z,85.93
2018-03-23T12:54:00.476Z,86.06
2018-03-23T12:55:27.691Z,86.88
2018-03-23T12:56:54.992Z,87.50
2018-03-23T12:58:22.116Z,87.26
2018-03-23T12:59:49.104Z,85.77
2018-03-23T13:01:16.218Z,86.02
2018-03-23T13:02:43.416Z,85.90
2018-03-23T13:04:14.596Z,86.11
2018-03-23T13:05:37.832Z,86.20
2018-03-23T13:07:05.064Z,86.02
2018-03-23T13:08:32.379Z,86.61
2018-03-23T13:10:03.514Z,87.10
2018-03-23T13:11:30.713Z,86.42
2018-03-23T13:12:53.952Z,85.77
2018-03-23T13:14:21.201Z,86.50
2018-03-23T13:15:48.126Z,86.20
2018-03-23T13:17:15.114Z,86.43
2018-03-23T13:18:42.243Z,86.37
2018-03-23T13:20:13.364Z,86.41
2018-03-23T13:21:36.403Z,86.13
2018-03-23T13:23:03.752Z,86.39
2018-03-23T13:24:35.085Z,86.44
2018-03-23T13:25:58.273Z,86.23
2018-03-23T13:27:25.587Z,86.31
2018-03-23T13:28:52.857Z,86.17
2018-03-23T13:30:20.045Z,86.14
2018-03-23T13:31:51.277Z,86.46
2018-03-23T13:33:18.427Z,86.86
2018-03-23T13:34:41.619Z,87.26
2018-03-23T13:36:08.835Z,87.51
2018-03-23T13:37:36.013Z,87.07
2018-03-23T13:39:03.289Z,87.24
2018-03-23T13:40:34.455Z,86.59
2018-03-23T13:42:04.536Z,87.28
2018-03-23T13:43:24.886Z,87.71
2018-03-23T13:44:56.130Z,87.64
2018-03-23T13:46:23.298Z,87.67
2018-03-23T13:47:50.582Z,87.13
2018-03-23T13:49:17.578Z,87.35
2018-03-23T13:50:40.832Z,87.90
2018-03-23T13:52:11.877Z,87.92
2018-03-23T13:53:39.180Z,87.62
2018-03-23T13:55:02.418Z,87.83
2018-03-23T13:56:29.641Z,88.32
2018-03-23T13:57:56.847Z,87.84
2018-03-23T13:59:28.059Z,87.97
2018-03-23T14:00:51.381Z,87.81
2018-03-23T14:02:18.376Z,87.94
2018-03-23T14:03:49.558Z,87.99
2018-03-23T14:05:16.557Z,88.42
2018-03-23T14:06:43.770Z,88.58
2018-03-23T14:08:10.864Z,88.18
2018-03-23T14:09:34.129Z,88.56
2018-03-23T14:11:01.321Z,88.87
2018-03-23T14:12:32.422Z,88.54
2018-03-23T14:13:55.533Z,88.67
2018-03-23T14:15:22.821Z,88.32
2018-03-23T14:16:54.067Z,87.91
2018-03-23T14:18:17.236Z,87.69
2018-03-23T14:19:44.399Z,87.85
2018-03-23T14:21:15.480Z,88.06
2018-03-23T14:22:42.834Z,87.84
2018-03-23T14:24:09.776Z,87.59
2018-03-23T14:25:36.997Z,87.86
2018-03-23T14:27:04.133Z,88.29
2018-03-23T14:28:27.126Z,88.44
2018-03-23T14:29:58.239Z,88.40
2018-03-23T14:31:21.509Z,88.67
2018-03-23T14:32:48.805Z,88.52
2018-03-23T14:34:19.895Z,88.47
2018-03-23T14:35:47.184Z,88.89
2018-03-23T14:37:14.219Z,89.03
2018-03-23T14:38:37.251Z,89.26
2018-03-23T14:40:08.342Z,89.59
2018-03-23T14:41:31.709Z,89.67
2018-03-23T14:42:58.927Z,89.53
2018-03-23T14:44:26.182Z,89.36
2018-03-23T14:45:53.462Z,89.05
2018-03-23T14:47:24.733Z,88.98
2018-03-23T14:48:47.957Z,89.20
2018-03-23T14:50:15.007Z,89.18
2018-03-23T14:51:42.229Z,89.36
2018-03-23T14:53:09.466Z,89.07
2018-03-23T14:54:40.588Z,89.48
2018-03-23T14:56:03.769Z,89.76
2018-03-23T14:57:35.015Z,89.90
2018-03-23T14:58:58.092Z,89.88
2018-03-23T15:00:25.272Z,89.94
2018-03-23T15:01:52.321Z,90.48
2018-03-23T15:03:23.478Z,90.65
2018-03-23T15:04:50.701Z,90.80
2018-03-23T15:06:13.753Z,90.84
2018-03-23T15:07:45.020Z,91.03
2018-03-23T15:09:12.230Z,91.25
2018-03-23T15:10:35.636Z,91.39
2018-03-23T15:12:02.954Z,90.65
2018-03-23T15:13:30.143Z,90.41
2018-03-23T15:15:01.380Z,90.53
2018-03-23T15:16:24.580Z,90.68
2018-03-23T15:17:51.789Z,90.93
2018-03-23T15:19:18.923Z,91.06
2018-03-23T15:20:46.054Z,91.23
2018-03-23T15:22:13.336Z,90.36
2018-03-23T15:23:44.564Z,90.77
2018-03-23T15:25:07.672Z,91.10
2018-03-23T15:26:34.882Z,90.67
2018-03-23T15:28:01.956Z,90.67
2018-03-23T15:29:33.205Z,91.00
2018-03-23T15:30:56.512Z,90.76
2018-03-23T15:32:23.656Z,91.11
2018-03-23T15:33:50.698Z,91.64
2018-03-23T15:35:21.914Z,91.68
2018-03-23T15:36:49.039Z,91.78
2018-03-23T15:38:12.263Z,91.68
2018-03-23T15:39:39.521Z,91.53
2018-03-23T15:41:10.590Z,91.65
2018-03-23T15:42:33.867Z,91.79
2018-03-23T15:44:00.962Z,91.61
2018-03-23T15:45:32.204Z,91.31
2018-03-23T15:46:59.459Z,91.09
2018-03-23T15:48:22.736Z,91.02
2018-03-23T15:49:49.859Z,91.25
2018-03-23T15:51:17.181Z,91.31
2018-03-23T15:52:44.233Z,91.20
2018-03-23T15:54:11.491Z,90.99
2018-03-23T15:55:42.555Z,90.94
2018-03-23T15:57:05.523Z,90.92
2018-03-23T15:58:32.834Z,90.85
2018-03-23T16:00:04.038Z,91.23
2018-03-23T16:01:27.320Z,91.24
2018-03-23T16:02:54.441Z,91.31
2018-03-23T16:04:25.665Z,91.33
2018-03-23T16:05:52.800Z,91.45
2018-03-23T16:07:20.094Z,91.31
2018-03-23T16:08:43.346Z,91.46
2018-03-23T16:10:10.547Z,91.70
2018-03-23T16:11:41.790Z,91.65
2018-03-23T16:13:04.900Z,91.20
2018-03-23T16:14:32.170Z,91.34
2018-03-23T16:16:03.335Z,91.55
2018-03-23T16:17:26.539Z,91.61
2018-03-23T16:18:53.878Z,91.84
2018-03-23T16:20:21.171Z,92.03
2018-03-23T16:21:48.437Z,92.06
2018-03-23T16:23:15.551Z,92.27
2018-03-23T16:24:42.822Z,92.30
2018-03-23T16:26:09.961Z,92.47
2018-03-23T16:27:37.164Z,92.61
2018-03-23T16:29:08.511Z,92.70
2018-03-23T16:30:35.733Z,92.46
2018-03-23T16:32:02.906Z,92.63
2018-03-23T16:33:26.114Z,92.25
2018-03-23T16:34:53.325Z,92.26
2018-03-23T16:36:24.639Z,92.37
2018-03-23T16:37:47.812Z,92.55
2018-03-23T16:39:15.038Z,92.95
2018-03-23T16:40:42.179Z,93.15
2018-03-23T16:42:13.157Z,93.37
2018-03-23T16:43:40.176Z,93.75
2018-03-23T16:45:03.494Z,93.89
2018-03-23T16:46:34.656Z,94.11
2018-03-23T16:47:57.925Z,94.13
2018-03-23T16:49:29.086Z,94.38
2018-03-23T16:50:56.135Z,94.42
2018-03-23T16:52:23.372Z,94.48
2018-03-23T16:53:50.663Z,94.59
2018-03-23T16:55:17.968Z,94.62
2018-03-23T16:56:45.232Z,94.66
2018-03-23T16:58:08.331Z,94.78
2018-03-23T16:59:39.624Z,95.02
2018-03-23T17:01:02.948Z,95.09
2018-03-23T17:02:30.128Z,95.28
2018-03-23T17:03:57.350Z,95.34
2018-03-23T17:05:24.573Z,95.37
2018-03-23T17:06:55.856Z,95.44
2018-03-23T17:08:19.229Z,95.58
2018-03-23T17:09:50.401Z,95.56
2018-03-23T17:11:17.748Z,95.40
2018-03-23T17:12:44.875Z,95.57
2018-03-23T17:14:07.925Z,95.62
2018-03-23T17:15:34.994Z,95.54
2018-03-23T17:17:02.295Z,95.50
2018-03-23T17:18:33.548Z,95.47
2018-03-23T17:20:00.640Z,95.53
2018-03-23T17:21:23.835Z,95.40
2018-03-23T17:22:51.069Z,95.28
2018-03-23T17:24:22.220Z,95.38
2018-03-23T17:25:45.447Z,95.06
2018-03-23T17:27:12.631Z,95.09
2018-03-23T17:28:39.832Z,95.30
2018-03-23T17:30:07.020Z,95.47
2018-03-23T17:31:38.321Z,95.52
2018-03-23T17:33:01.632Z,95.58
2018-03-23T17:34:32.901Z,95.68
2018-03-23T17:36:00.200Z,95.86
2018-03-23T17:37:23.416Z,95.91
2018-03-23T17:38:54.755Z,95.97
2018-03-23T17:40:17.891Z,96.01
2018-03-23T17:41:48.971Z,96.14
2018-03-23T17:43:12.090Z,96.29
2018-03-23T17:44:39.276Z,96.27
2018-03-23T17:46:06.322Z,96.23
2018-03-23T17:47:37.512Z,96.29
2018-03-23T17:49:04.892Z,96.13
2018-03-23T17:50:32.157Z,96.22
2018-03-23T17:51:59.267Z,96.12
2018-03-23T17:53:26.539Z,96.12
2018-03-23T17:54:53.523Z,96.11
2018-03-23T17:56:16.731Z,96.16
2018-03-23T17:57:44.017Z,96.13
2018-03-23T17:59:11.132Z,96.31
2018-03-23T18:00:42.320Z,96.27
2018-03-23T18:02:09.655Z,96.37
2018-03-23T18:03:36.830Z,96.30
2018-03-23T18:04:59.965Z,96.40
2018-03-23T18:06:27.214Z,96.42
2018-03-23T18:07:58.320Z,96.39
2018-03-23T18:09:25.504Z,96.39
2018-03-23T18:10:48.806Z,96.24
2018-03-23T18:12:20.039Z,96.26
2018-03-23T18:13:47.217Z,96.30
2018-03-23T18:15:10.422Z,96.10
2018-03-23T18:16:41.369Z,96.35
2018-03-23T18:18:08.547Z,96.26
2018-03-23T18:19:35.767Z,96.33
2018-03-23T18:20:58.867Z,95.82
2018-03-23T18:22:26.097Z,95.36
2018-03-23T18:23:57.229Z,95.36
2018-03-23T18:25:20.467Z,95.19
2018-03-23T18:26:47.780Z,95.48
2018-03-23T18:28:14.833Z,95.80
2018-03-23T18:29:45.957Z,95.94
2018-03-23T18:31:09.204Z,95.94
2018-03-23T18:32:40.322Z,95.83
2018-03-23T18:34:03.614Z,95.16
2018-03-23T18:35:34.712Z,95.35
2018-03-23T18:36:57.802Z,95.13
2018-03-23T18:38:28.830Z,95.40
2018-03-23T18:39:52.204Z,95.61
2018-03-23T18:41:19.422Z,95.76
2018-03-23T18:42:50.529Z,95.86